Time;durP1;ratioP1;P1;durP2;ratioP2;P2;SDS_P1;SDS_P2;PMS_P1;PMS_P2;Temp;Humidity;BMP_temperature;BMP_pressure;BME280_temperature;BME280_humidity;BME280_pressure;Samples;Min_cycle;Max_cycle;Signal;HPM_P1;HPM_P2
2022/12/04 00:05:18;;;;;;;3.13;2.10;;;;;;;;;;21159958;28;20559;-67
2022/12/04 00:15:20;;;;;;;2.20;1.60;;;;;;;;;;21159469;28;20240;-66
2022/12/04 00:25:22;;;;;;;2.43;1.47;;;;;;;;;;21158925;28;20698;-67
2022/12/04 00:35:25;;;;;;;3.07;1.90;;;;;;;;;;21163704;27;20223;-67
2022/12/04 00:45:26;;;;;;;2.83;1.63;;;;;;;;;;21201031;27;20207;-66
2022/12/04 00:55:28;;;;;;;3.27;1.70;;;;;;;;;;21168180;27;20307;-67
2022/12/04 01:05:30;;;;;;;2.63;1.30;;;;;;;;;;21241057;27;20195;-66
2022/12/04 01:15:31;;;;;;;4.00;2.43;;;;;;;;;;21163909;27;20269;-67
2022/12/04 01:25:33;;;;;;;2.50;1.70;;;;;;;;;;21128080;22;20224;-67
2022/12/04 01:35:35;;;;;;;3.03;2.00;;;;;;;;;;21070770;28;20274;-67
2022/12/04 01:45:38;;;;;;;2.47;1.70;;;;;;;;;;21068724;28;20221;-67
2022/12/04 01:55:40;;;;;;;2.93;1.80;;;3.20;99.90;;;;;;21069707;28;20270;-67
2022/12/04 02:05:43;;;;;;;2.93;2.00;;;;;;;;;;21067134;28;20304;-69
2022/12/04 02:15:52;;;;;;;2.67;2.03;;;;;;;;;;21067867;28;20228;-69
2022/12/04 02:26:14;;;;;;;1.90;1.43;;;3.40;99.90;;;;;;21067415;28;20220;-69
2022/12/04 02:36:21;;;;;;;1.90;1.20;;;;;;;;;;21077705;28;20277;-67
2022/12/04 02:46:26;;;;;;;1.80;1.20;;;;;;;;;;21084265;28;20199;-69
2022/12/04 02:56:33;;;;;;;2.43;1.10;;;3.10;99.90;;;;;;21082313;28;20229;-69
2022/12/04 03:06:38;;;;;;;3.20;1.67;;;3.30;99.90;;;;;;21080106;28;20641;-69
2022/12/04 03:16:41;;;;;;;3.47;1.87;;;3.30;99.90;;;;;;21081899;28;20285;-69
2022/12/04 03:26:43;;;;;;;2.83;1.60;;;;;;;;;;21081030;28;20285;-68
2022/12/04 03:36:52;;;;;;;3.60;1.90;;;;;;;;;;21081516;28;20208;-67
2022/12/04 03:47:10;;;;;;;3.30;2.30;;;3.20;99.90;;;;;;21079531;28;20708;-69
2022/12/04 03:57:15;;;;;;;3.23;2.23;;;3.30;99.90;;;;;;21078232;28;20645;-68
2022/12/04 04:07:22;;;;;;;3.67;1.93;;;;;;;;;;21076718;28;20204;-69
2022/12/04 04:27:57;;;;;;;3.27;2.00;;;3.40;99.90;;;;;;21044586;28;20236;-69
2022/12/04 04:38:04;;;;;;;4.00;2.37;;;;;;;;;;21074660;28;20220;-69
2022/12/04 04:48:05;;;;;;;2.43;1.80;;;;;;;;;;21074461;28;20274;-69
2022/12/04 04:58:07;;;;;;;3.20;1.73;;;;;;;;;;21072387;28;20205;-69
2022/12/04 05:08:08;;;;;;;2.90;2.10;;;;;;;;;;21072078;28;20307;-69
2022/12/04 05:18:11;;;;;;;2.87;2.00;;;;;;;;;;21070656;28;20706;-69
2022/12/04 05:28:12;;;;;;;2.43;1.80;;;;;;;;;;21071031;28;20234;-69
2022/12/04 05:38:14;;;;;;;2.60;1.63;;;;;;;;;;21050770;28;20232;-69
2022/12/04 05:48:16;;;;;;;2.53;1.93;;;;;;;;;;21069560;28;20213;-69
2022/12/04 05:58:18;;;;;;;3.73;2.03;;;;;;;;;;21068891;28;20231;-67
2022/12/04 06:08:19;;;;;;;6.10;2.10;;;;;;;;;;21066831;28;20671;-69
2022/12/04 06:18:21;;;;;;;3.33;2.27;;;;;;;;;;21067739;28;20234;-69
2022/12/04 06:28:23;;;;;;;2.70;1.90;;;;;;;;;;21067856;28;20261;-68
2022/12/04 06:38:24;;;;;;;2.53;1.43;;;;;;;;;;21067170;28;20476;-69
2022/12/04 06:48:28;;;;;;;2.30;1.37;;;;;;;;;;21066611;28;20208;-68
2022/12/04 06:58:30;;;;;;;2.83;1.63;;;3.30;99.90;;;;;;21065310;28;20224;-68
2022/12/04 07:08:32;;;;;;;4.07;2.30;;;;;;;;;;21064970;28;20231;-68
2022/12/04 07:18:34;;;;;;;2.47;1.37;;;;;;;;;;21065264;28;20568;-67
2022/12/04 07:28:37;;;;;;;4.13;2.07;;;;;;;;;;21118538;22;20817;-64
2022/12/04 07:38:38;;;;;;;3.40;2.00;;;;;;;;;;21121024;28;20850;-64
2022/12/04 07:48:40;;;;;;;2.93;2.03;;;3.40;99.90;;;;;;21132125;28;20269;-65
2022/12/04 07:58:42;;;;;;;3.23;1.47;;;;;;;;;;21124705;28;20641;-65
2022/12/04 08:08:44;;;;;;;2.23;1.60;;;;;;;;;;21103167;28;20208;-65
2022/12/04 08:18:47;;;;;;;2.43;1.97;;;;;;;;;;21127698;28;20223;-65
2022/12/04 08:28:49;;;;;;;2.80;1.83;;;;;;;;;;21143400;28;20227;-64
2022/12/04 08:38:56;;;;;;;2.23;1.40;;;;;;;;;;21128683;28;20554;-65
2022/12/04 08:48:58;;;;;;;2.17;1.50;;;;;;;;;;21126421;28;20207;-65
2022/12/04 08:59:00;;;;;;;3.80;1.80;;;3.40;99.90;;;;;;21142734;28;20296;-65
2022/12/04 09:09:02;;;;;;;1.97;1.30;;;;;;;;;;21123079;28;20705;-66
2022/12/04 09:19:04;;;;;;;4.10;1.90;;;;;;;;;;21118222;28;20239;-66
2022/12/04 09:29:06;;;;;;;3.27;1.93;;;;;;;;;;21135902;28;20762;-66
2022/12/04 09:39:09;;;;;;;3.17;1.87;;;;;;;;;;21135206;28;20312;-66
2022/12/04 09:49:13;;;;;;;3.37;2.30;;;;;;;;;;21135253;28;20786;-66
2022/12/04 09:59:20;;;;;;;4.03;2.80;;;;;;;;;;21117030;28;20224;-66
2022/12/04 10:09:39;;;;;;;2.83;1.87;;;;;;;;;;21129732;28;20195;-65
2022/12/04 10:19:59;;;;;;;3.10;2.17;;;3.60;99.90;;;;;;21126070;28;20690;-65
2022/12/04 10:30:11;;;;;;;2.90;1.53;;;;;;;;;;21146084;28;20211;-66
2022/12/04 10:40:17;;;;;;;3.97;2.37;;;;;;;;;;21088663;28;20591;-65
2022/12/04 10:50:23;;;;;;;2.90;1.87;;;3.60;99.90;;;;;;21104662;28;20693;-65
2022/12/04 11:00:30;;;;;;;2.97;1.70;;;;;;;;;;21059132;28;20232;-66
2022/12/04 11:10:35;;;;;;;4.17;2.30;;;;;;;;;;21075107;28;20262;-66
2022/12/04 11:20:38;;;;;;;5.00;2.50;;;;;;;;;;21061412;28;20285;-66
2022/12/04 11:30:46;;;;;;;2.87;1.50;;;;;;;;;;21061690;28;20259;-65
2022/12/04 11:40:59;;;;;;;2.63;1.60;;;;;;;;;;21126343;28;20227;-66
2022/12/04 11:51:01;;;;;;;4.33;2.23;;;;;;;;;;21157841;28;20227;-66
2022/12/04 12:01:37;;;;;;;3.50;2.20;;;3.30;99.90;;;;;;21140896;28;20261;-66
2022/12/04 12:11:52;;;;;;;3.27;2.00;;;3.60;99.90;;;;;;21157139;28;20203;-66
2022/12/04 12:21:59;;;;;;;3.23;2.07;;;;;;;;;;21157072;28;20216;-66
2022/12/04 12:32:17;;;;;;;2.37;1.63;;;;;;;;;;21121688;28;20691;-65
2022/12/04 12:42:34;;;;;;;3.80;2.20;;;3.60;99.90;;;;;;21221888;27;20295;-65
2022/12/04 12:52:46;;;;;;;2.53;1.57;;;;;;;;;;21205041;27;20267;-65
2022/12/04 13:02:53;;;;;;;3.63;2.20;;;;;;;;;;21187754;27;20218;-66
2022/12/04 13:12:59;;;;;;;3.17;1.90;;;;;;;;;;21207432;27;20207;-66
2022/12/04 13:23:07;;;;;;;4.30;2.17;;;;;;;;;;21257118;27;20222;-65
2022/12/04 13:33:21;;;;;;;2.80;2.10;;;;;;;;;;21102009;22;20229;-67
2022/12/04 13:43:35;;;;;;;2.70;1.73;;;3.60;99.90;;;;;;21019937;28;20242;-67
2022/12/04 13:53:39;;;;;;;2.83;2.00;;;;;;;;;;21052228;28;20216;-67
2022/12/04 14:03:58;;;;;;;3.20;2.00;;;3.60;99.90;;;;;;21034330;28;20649;-67
2022/12/04 14:14:01;;;;;;;5.23;2.20;;;3.60;99.90;;;;;;21033587;28;20224;-69
2022/12/04 14:24:14;;;;;;;3.73;2.53;;;;;;;;;;21050173;28;20293;-67
2022/12/04 14:34:21;;;;;;;3.37;2.13;;;;;;;;;;21032767;28;20269;-67
2022/12/04 14:44:28;;;;;;;5.63;2.83;;;;;;;;;;21048755;28;20289;-66
2022/12/04 14:54:52;;;;;;;2.80;1.83;;;;;;;;;;21032107;28;20671;-67
2022/12/04 15:04:56;;;;;;;4.67;2.70;;;;;;;;;;21031632;28;20209;-67
2022/12/04 15:14:58;;;;;;;4.10;2.33;;;;;;;;;;21032203;28;20212;-67
2022/12/04 15:25:01;;;;;;;4.77;2.23;;;3.40;99.90;;;;;;21046767;28;20273;-66
2022/12/04 15:35:11;;;;;;;3.37;2.00;;;3.60;99.90;;;;;;21036662;22;20221;-70
2022/12/04 15:45:13;;;;;;;3.97;2.27;;;;;;;;;;20990948;28;20181;-71
2022/12/04 15:55:17;;;;;;;3.20;2.03;;;;;;;;;;20988713;28;20231;-69
2022/12/04 16:05:21;;;;;;;4.37;2.30;;;3.40;99.90;;;;;;20993539;28;20207;-71
2022/12/04 16:15:24;;;;;;;3.20;2.30;;;3.40;99.90;;;;;;20991695;28;20213;-68
2022/12/04 16:25:29;;;;;;;4.07;2.60;;;;;;;;;;20991847;28;20201;-70
2022/12/04 16:35:31;;;;;;;2.67;1.90;;;;;;;;;;20987705;28;20229;-70
2022/12/04 16:45:34;;;;;;;2.97;2.07;;;3.50;99.90;;;;;;20988471;28;20692;-69
2022/12/04 16:55:37;;;;;;;3.33;2.03;;;;;;;;;;20987761;28;20585;-70
2022/12/04 17:05:39;;;;;;;4.30;2.60;;;;;;;;;;20987310;28;20240;-70
2022/12/04 17:15:41;;;;;;;4.30;2.40;;;;;;;;;;20980831;28;20792;-70
2022/12/04 17:25:42;;;;;;;2.90;2.03;;;;;;;;;;20966437;28;20631;-72
2022/12/04 17:35:44;;;;;;;2.97;1.83;;;;;;;;;;20982576;28;20258;-69
2022/12/04 17:45:46;;;;;;;3.40;2.37;;;;;;;;;;20982403;28;20198;-69
2022/12/04 17:55:49;;;;;;;3.80;2.50;;;;;;;;;;20981199;28;20268;-68
2022/12/04 18:05:50;;;;;;;7.23;2.60;;;;;;;;;;20956074;28;20221;-71
2022/12/04 18:15:52;;;;;;;3.80;2.30;;;;;;;;;;20972719;28;20229;-68
2022/12/04 18:25:55;;;;;;;4.83;2.43;;;3.40;99.90;;;;;;20975527;28;20217;-71
2022/12/04 18:35:58;;;;;;;4.70;2.27;;;;;;;;;;20972212;28;20701;-70
2022/12/04 18:46:02;;;;;;;4.03;2.57;;;;;;;;;;20973087;28;20221;-71
2022/12/04 18:56:06;;;;;;;6.00;2.77;;;;;;;;;;20972014;28;20221;-70
2022/12/04 19:06:08;;;;;;;4.53;2.60;;;;;;;;;;20954718;28;20595;-71
2022/12/04 19:16:13;;;;;;;3.63;2.23;;;;;;;;;;20989001;28;20213;-71
2022/12/04 19:26:15;;;;;;;5.13;2.93;;;;;;;;;;20993130;22;20229;-68
2022/12/04 19:36:17;;;;;;;4.97;2.60;;;;;;;;;;21160156;28;20265;-68
2022/12/04 19:46:22;;;;;;;3.97;2.60;;;;;;;;;;21123919;28;20204;-69
2022/12/04 19:56:25;;;;;;;3.77;2.73;;;;;;;;;;21158539;28;20276;-68
2022/12/04 20:06:29;;;;;;;4.20;2.37;;;3.60;99.90;;;;;;21155331;28;20269;-68
2022/12/04 20:16:32;;;;;;;4.23;2.30;;;3.50;99.90;;;;;;21155102;28;20257;-67
2022/12/04 20:26:37;;;;;;;6.70;2.43;;;;;;;;;;21129052;28;20247;-67
2022/12/04 20:36:40;;;;;;;3.73;2.70;;;;;;;;;;21147628;28;20624;-68
2022/12/04 20:46:43;;;;;;;3.50;2.50;;;;;;;;;;21084859;28;20683;-68
2022/12/04 20:56:47;;;;;;;4.60;2.70;;;3.40;99.90;;;;;;21067182;28;20660;-69
2022/12/04 21:06:49;;;;;;;3.20;2.30;;;;;;;;;;21068757;28;20832;-69
2022/12/04 21:16:51;;;;;;;4.63;2.37;;;;;;;;;;21068501;28;20294;-69
2022/12/04 21:26:53;;;;;;;3.97;2.40;;;;;;;;;;21067815;28;20220;-69
2022/12/04 21:36:55;;;;;;;3.93;2.57;;;;;;;;;;21051400;28;20771;-69
2022/12/04 21:46:57;;;;;;;4.73;2.67;;;;;;;;;;21069724;28;20258;-69
2022/12/04 21:56:58;;;;;;;4.93;2.70;;;;;;;;;;21069016;28;20217;-70
2022/12/04 22:07:00;;;;;;;5.53;3.27;;;;;;;;;;21068719;28;20238;-68
2022/12/04 22:17:02;;;;;;;8.37;4.80;;;;;;;;;;21067787;28;20217;-69
2022/12/04 22:27:03;;;;;;;4.90;2.53;;;;;;;;;;21066593;28;20246;-69
2022/12/04 22:37:05;;;;;;;4.10;2.57;;;;;;;;;;21067566;28;20281;-68
2022/12/04 22:47:07;;;;;;;3.67;2.10;;;;;;;;;;21071941;28;20687;-69
2022/12/04 22:57:09;;;;;;;2.90;2.00;;;;;;;;;;21082991;28;20234;-69
2022/12/04 23:07:10;;;;;;;3.30;2.23;;;;;;;;;;21106642;28;20211;-69
2022/12/04 23:17:12;;;;;;;5.57;3.17;;;;;;;;;;21141618;28;20250;-69
2022/12/04 23:27:14;;;;;;;4.47;2.57;;;;;;;;;;21079350;28;20232;-69
2022/12/04 23:37:16;;;;;;;4.13;2.23;;;;;;;;;;21062207;28;20212;-69
2022/12/04 23:47:18;;;;;;;3.83;2.40;;;;;;;;;;21078656;28;20269;-69
2022/12/04 23:57:20;;;;;;;5.30;2.70;;;;;;;;;;21077426;28;20224;-69
